Alakanuk, Alaska
Current Conditions -  °F | °C
As of 1:56 AM on Sunday 26 Oct 2014 (Local Time) from PAEM Reporting Station
Broken Clouds Broken Clouds  
Wind Chill: -5°   Ceiling: 2100
Heat Index: -1°   Visibility: 10mi
Dew Point: -4°   Wind: 8mph
Humidity: 80%   Direction: 180°S
Pressure: 29.76"   Gusts: NA
Location:  62.69°N, 164.62°W
Report Text: PAEM 260956Z 18007KT 10SM FEW016 BKN021 BKN065 M01/M04 A2976 RMK AO1
Loading
Personal Weather Stations






























Interactive Weather Map
Tropical Storm Tracking
New forecast layout! Learn more

10-Day Weather Forecast

Advertisements
Track Severe Weather on mobile